Forside
METAR-TAF:

METAR-TAF

Lufthavne :

Minneapolis, Minnesota, USA

Breddekreds: 44-52-59N, længdekreds: 093-13-44W, højde: 256 m

Aktuelle vejr

Denne rapport blev lavet for 48 minutter siden, kl. 23:53 UTC
Vind 14 kt fra nordvest med vindstød på up til 17 kt
Temperatur 19°C
Fugtighed 34%
Tryk 1014 hPa
Sigt: 16.1 km
Spredte skyer i en højde af 8000 ft

METAR: KMSP 212353Z 31014G17KT 10SM SCT080 19/03 A2993 RMK AO2 SLP134 T01890028 10206 20172 56003

Tid: 19:41 (00:41 UTC)

Vejrudsigter

Denne rapport blev lavet for 1 time og 21 minutter siden, kl. 23:20 UTC
Foreløbig gælder fra 22 på 00 UTC til 23 på 06 UTC
Vind 10 kt fra nordvest
Sigt: 10 km
Brudte skyer i en højde af 8000 ft
Fra 22 på 0300 UTC
Vind 4 kt fra vest
Sigt: 10 km
skyfri
Fra 22 på 1500 UTC
Vind 6 kt fra syd
Sigt: 10 km
Nogle få skyer i en højde af 15000 ft

TAF: KMSP 212320Z 2200/2306 31010KT P6SM BKN080 FM220300 27004KT P6SM SKC FM221500 19006KT P6SM FEW150

Vejrobservationer og prognoser fra mere end 4000 lufthavne (METAR og TAF).

De gule og røde prikker repræsenterer de meteorologiske stationer.

Flyt musen over at se navnet på stationen.

Så klik over at se vejr observationer og prognoser.

At skifte det kort: Klik på de grønne knapper med et sort kors for at zoome ind; på den grønne knap med en bindestreg for at zoome ud; eller på de grønne pile for tilstødende kort.


METAR-TAF: